sensor_id;sensor_type;location;lat;lon;timestamp;P1;durP1;ratioP1;P2;durP2;ratioP2
10667;SDS011;5382;42.136;24.796;2023-04-09T00:01:18;8.73;;;5.90;;
10667;SDS011;5382;42.136;24.796;2023-04-09T00:03:45;8.32;;;5.20;;
10667;SDS011;5382;42.136;24.796;2023-04-09T00:06:12;8.15;;;5.20;;
10667;SDS011;5382;42.136;24.796;2023-04-09T00:08:39;5.25;;;4.07;;
10667;SDS011;5382;42.136;24.796;2023-04-09T00:11:06;7.70;;;4.90;;
10667;SDS011;5382;42.136;24.796;2023-04-09T00:13:34;4.90;;;3.53;;
10667;SDS011;5382;42.136;24.796;2023-04-09T00:16:01;6.65;;;5.22;;
10667;SDS011;5382;42.136;24.796;2023-04-09T00:18:28;6.75;;;4.80;;
10667;SDS011;5382;42.136;24.796;2023-04-09T00:20:55;6.03;;;3.90;;
10667;SDS011;5382;42.136;24.796;2023-04-09T00:23:21;9.77;;;5.93;;
10667;SDS011;5382;42.136;24.796;2023-04-09T00:25:48;7.03;;;5.22;;
10667;SDS011;5382;42.136;24.796;2023-04-09T00:28:15;10.65;;;5.15;;
10667;SDS011;5382;42.136;24.796;2023-04-09T00:30:43;11.15;;;6.30;;
10667;SDS011;5382;42.136;24.796;2023-04-09T00:33:10;8.45;;;5.15;;
10667;SDS011;5382;42.136;24.796;2023-04-09T00:35:37;7.25;;;5.28;;
10667;SDS011;5382;42.136;24.796;2023-04-09T00:38:03;8.70;;;5.97;;
10667;SDS011;5382;42.136;24.796;2023-04-09T00:40:30;7.88;;;4.88;;
10667;SDS011;5382;42.136;24.796;2023-04-09T00:42:57;9.13;;;6.30;;
10667;SDS011;5382;42.136;24.796;2023-04-09T00:45:25;8.10;;;5.47;;
10667;SDS011;5382;42.136;24.796;2023-04-09T00:47:53;7.82;;;5.95;;
10667;SDS011;5382;42.136;24.796;2023-04-09T00:50:20;11.65;;;6.18;;
10667;SDS011;5382;42.136;24.796;2023-04-09T00:52:47;9.38;;;4.88;;
10667;SDS011;5382;42.136;24.796;2023-04-09T00:55:14;9.00;;;5.85;;
10667;SDS011;5382;42.136;24.796;2023-04-09T00:57:41;10.10;;;6.20;;
10667;SDS011;5382;42.136;24.796;2023-04-09T01:00:09;9.32;;;6.38;;
10667;SDS011;5382;42.136;24.796;2023-04-09T01:02:37;9.25;;;6.00;;
10667;SDS011;5382;42.136;24.796;2023-04-09T01:05:06;8.27;;;5.38;;
10667;SDS011;5382;42.136;24.796;2023-04-09T01:07:36;8.10;;;5.70;;
10667;SDS011;5382;42.136;24.796;2023-04-09T01:10:16;8.13;;;5.55;;
10667;SDS011;5382;42.136;24.796;2023-04-09T01:12:53;5.68;;;4.25;;
10667;SDS011;5382;42.136;24.796;2023-04-09T01:15:28;8.45;;;5.15;;
10667;SDS011;5382;42.136;24.796;2023-04-09T01:18:01;13.38;;;6.80;;
10667;SDS011;5382;42.136;24.796;2023-04-09T01:20:33;10.90;;;6.40;;
10667;SDS011;5382;42.136;24.796;2023-04-09T01:23:06;10.60;;;6.35;;
10667;SDS011;5382;42.136;24.796;2023-04-09T01:25:49;9.80;;;6.18;;
10667;SDS011;5382;42.136;24.796;2023-04-09T01:28:31;9.77;;;5.90;;
10667;SDS011;5382;42.136;24.796;2023-04-09T01:31:01;9.60;;;6.60;;
10667;SDS011;5382;42.136;24.796;2023-04-09T01:33:32;12.50;;;7.18;;
10667;SDS011;5382;42.136;24.796;2023-04-09T01:36:00;10.25;;;6.85;;
10667;SDS011;5382;42.136;24.796;2023-04-09T01:38:29;8.93;;;6.40;;
10667;SDS011;5382;42.136;24.796;2023-04-09T01:40:58;14.25;;;8.52;;
10667;SDS011;5382;42.136;24.796;2023-04-09T01:43:26;10.10;;;6.78;;
10667;SDS011;5382;42.136;24.796;2023-04-09T01:45:55;13.27;;;7.22;;
10667;SDS011;5382;42.136;24.796;2023-04-09T01:48:23;11.55;;;8.00;;
10667;SDS011;5382;42.136;24.796;2023-04-09T01:50:51;12.82;;;6.40;;
10667;SDS011;5382;42.136;24.796;2023-04-09T01:53:19;11.75;;;7.93;;
10667;SDS011;5382;42.136;24.796;2023-04-09T01:55:47;9.13;;;6.40;;
10667;SDS011;5382;42.136;24.796;2023-04-09T01:58:14;9.82;;;5.80;;
10667;SDS011;5382;42.136;24.796;2023-04-09T02:00:42;5.65;;;4.18;;
10667;SDS011;5382;42.136;24.796;2023-04-09T02:03:15;10.25;;;6.43;;
10667;SDS011;5382;42.136;24.796;2023-04-09T02:05:45;10.63;;;7.10;;
10667;SDS011;5382;42.136;24.796;2023-04-09T02:08:18;7.78;;;5.78;;
10667;SDS011;5382;42.136;24.796;2023-04-09T02:10:48;11.32;;;6.82;;
10667;SDS011;5382;42.136;24.796;2023-04-09T02:13:19;12.27;;;7.20;;
10667;SDS011;5382;42.136;24.796;2023-04-09T02:15:47;12.98;;;6.95;;
10667;SDS011;5382;42.136;24.796;2023-04-09T02:18:24;8.82;;;6.20;;
10667;SDS011;5382;42.136;24.796;2023-04-09T02:20:52;7.95;;;4.63;;
10667;SDS011;5382;42.136;24.796;2023-04-09T02:23:19;10.70;;;6.03;;
10667;SDS011;5382;42.136;24.796;2023-04-09T02:25:47;11.85;;;7.40;;
10667;SDS011;5382;42.136;24.796;2023-04-09T02:28:14;9.80;;;6.75;;
10667;SDS011;5382;42.136;24.796;2023-04-09T02:30:41;12.35;;;7.38;;
10667;SDS011;5382;42.136;24.796;2023-04-09T02:33:07;9.82;;;6.57;;
10667;SDS011;5382;42.136;24.796;2023-04-09T02:35:36;9.43;;;6.00;;
10667;SDS011;5382;42.136;24.796;2023-04-09T02:38:03;14.73;;;8.50;;
10667;SDS011;5382;42.136;24.796;2023-04-09T02:40:29;12.35;;;7.65;;
10667;SDS011;5382;42.136;24.796;2023-04-09T02:42:56;13.98;;;7.78;;
10667;SDS011;5382;42.136;24.796;2023-04-09T02:45:23;13.77;;;8.00;;
10667;SDS011;5382;42.136;24.796;2023-04-09T02:47:50;16.08;;;8.82;;
10667;SDS011;5382;42.136;24.796;2023-04-09T02:50:17;10.60;;;8.20;;
10667;SDS011;5382;42.136;24.796;2023-04-09T02:52:46;17.30;;;7.97;;
10667;SDS011;5382;42.136;24.796;2023-04-09T02:55:13;14.38;;;8.68;;
10667;SDS011;5382;42.136;24.796;2023-04-09T02:57:40;13.55;;;8.43;;
10667;SDS011;5382;42.136;24.796;2023-04-09T03:00:07;14.07;;;9.23;;
10667;SDS011;5382;42.136;24.796;2023-04-09T03:02:37;16.05;;;8.63;;
10667;SDS011;5382;42.136;24.796;2023-04-09T03:05:05;13.60;;;8.80;;
10667;SDS011;5382;42.136;24.796;2023-04-09T03:07:32;14.80;;;8.65;;
10667;SDS011;5382;42.136;24.796;2023-04-09T03:10:00;13.93;;;8.77;;
10667;SDS011;5382;42.136;24.796;2023-04-09T03:12:27;16.92;;;10.25;;
10667;SDS011;5382;42.136;24.796;2023-04-09T03:14:53;15.80;;;9.30;;
10667;SDS011;5382;42.136;24.796;2023-04-09T03:17:20;17.95;;;10.93;;
10667;SDS011;5382;42.136;24.796;2023-04-09T03:19:49;19.20;;;10.70;;
10667;SDS011;5382;42.136;24.796;2023-04-09T03:22:16;19.48;;;12.52;;
10667;SDS011;5382;42.136;24.796;2023-04-09T03:24:43;15.63;;;9.70;;
10667;SDS011;5382;42.136;24.796;2023-04-09T03:27:11;16.88;;;9.70;;
10667;SDS011;5382;42.136;24.796;2023-04-09T03:29:39;13.15;;;9.73;;
10667;SDS011;5382;42.136;24.796;2023-04-09T03:32:05;14.65;;;9.18;;
10667;SDS011;5382;42.136;24.796;2023-04-09T03:34:32;17.88;;;11.10;;
10667;SDS011;5382;42.136;24.796;2023-04-09T03:36:59;16.20;;;10.55;;
10667;SDS011;5382;42.136;24.796;2023-04-09T03:39:26;16.83;;;11.25;;
10667;SDS011;5382;42.136;24.796;2023-04-09T03:41:54;19.55;;;11.15;;
10667;SDS011;5382;42.136;24.796;2023-04-09T03:44:23;19.50;;;11.07;;
10667;SDS011;5382;42.136;24.796;2023-04-09T03:46:50;20.60;;;10.10;;
10667;SDS011;5382;42.136;24.796;2023-04-09T03:49:17;23.92;;;11.52;;
10667;SDS011;5382;42.136;24.796;2023-04-09T03:51:44;21.65;;;10.98;;
10667;SDS011;5382;42.136;24.796;2023-04-09T03:54:10;20.92;;;10.90;;
10667;SDS011;5382;42.136;24.796;2023-04-09T03:56:37;17.70;;;11.00;;
10667;SDS011;5382;42.136;24.796;2023-04-09T03:59:04;21.25;;;11.02;;
10667;SDS011;5382;42.136;24.796;2023-04-09T04:01:33;17.58;;;11.23;;
10667;SDS011;5382;42.136;24.796;2023-04-09T04:04:00;18.15;;;11.75;;
10667;SDS011;5382;42.136;24.796;2023-04-09T04:06:27;17.50;;;10.90;;
10667;SDS011;5382;42.136;24.796;2023-04-09T04:08:54;18.48;;;11.43;;
10667;SDS011;5382;42.136;24.796;2023-04-09T04:11:20;17.95;;;10.07;;
10667;SDS011;5382;42.136;24.796;2023-04-09T04:13:47;24.25;;;12.98;;
10667;SDS011;5382;42.136;24.796;2023-04-09T04:16:14;19.10;;;11.85;;
10667;SDS011;5382;42.136;24.796;2023-04-09T04:18:42;18.45;;;12.40;;
10667;SDS011;5382;42.136;24.796;2023-04-09T04:21:11;18.20;;;10.90;;
10667;SDS011;5382;42.136;24.796;2023-04-09T04:23:39;20.70;;;11.55;;
10667;SDS011;5382;42.136;24.796;2023-04-09T04:26:06;19.52;;;11.48;;
10667;SDS011;5382;42.136;24.796;2023-04-09T04:28:34;20.23;;;11.80;;
10667;SDS011;5382;42.136;24.796;2023-04-09T04:31:01;20.48;;;12.20;;
10667;SDS011;5382;42.136;24.796;2023-04-09T04:33:32;18.13;;;11.30;;
10667;SDS011;5382;42.136;24.796;2023-04-09T04:36:07;17.40;;;10.65;;
10667;SDS011;5382;42.136;24.796;2023-04-09T04:38:35;18.13;;;10.77;;
10667;SDS011;5382;42.136;24.796;2023-04-09T04:41:03;16.60;;;10.30;;
10667;SDS011;5382;42.136;24.796;2023-04-09T04:43:30;19.63;;;12.00;;
10667;SDS011;5382;42.136;24.796;2023-04-09T04:45:57;17.73;;;10.65;;
10667;SDS011;5382;42.136;24.796;2023-04-09T04:48:24;15.95;;;8.70;;
10667;SDS011;5382;42.136;24.796;2023-04-09T04:51:10;14.88;;;10.23;;
10667;SDS011;5382;42.136;24.796;2023-04-09T04:53:36;19.20;;;9.75;;
10667;SDS011;5382;42.136;24.796;2023-04-09T04:56:03;18.27;;;10.48;;
10667;SDS011;5382;42.136;24.796;2023-04-09T04:58:30;20.67;;;10.23;;
10667;SDS011;5382;42.136;24.796;2023-04-09T05:00:57;18.17;;;11.43;;
10667;SDS011;5382;42.136;24.796;2023-04-09T05:03:25;21.67;;;12.13;;
10667;SDS011;5382;42.136;24.796;2023-04-09T05:05:51;21.88;;;11.63;;
10667;SDS011;5382;42.136;24.796;2023-04-09T05:08:20;21.45;;;11.98;;
10667;SDS011;5382;42.136;24.796;2023-04-09T05:10:46;19.63;;;10.93;;
10667;SDS011;5382;42.136;24.796;2023-04-09T05:13:13;22.48;;;12.27;;
10667;SDS011;5382;42.136;24.796;2023-04-09T05:15:40;20.98;;;11.45;;
10667;SDS011;5382;42.136;24.796;2023-04-09T05:18:07;23.40;;;11.18;;
10667;SDS011;5382;42.136;24.796;2023-04-09T05:20:34;18.50;;;10.93;;
10667;SDS011;5382;42.136;24.796;2023-04-09T05:23:01;20.13;;;12.32;;
10667;SDS011;5382;42.136;24.796;2023-04-09T05:25:29;21.65;;;11.23;;
10667;SDS011;5382;42.136;24.796;2023-04-09T05:27:56;23.38;;;12.68;;
10667;SDS011;5382;42.136;24.796;2023-04-09T05:30:23;23.52;;;12.93;;
10667;SDS011;5382;42.136;24.796;2023-04-09T05:32:49;21.40;;;11.85;;
10667;SDS011;5382;42.136;24.796;2023-04-09T05:35:16;27.20;;;12.07;;
10667;SDS011;5382;42.136;24.796;2023-04-09T05:37:43;25.45;;;12.80;;
10667;SDS011;5382;42.136;24.796;2023-04-09T05:40:10;27.27;;;13.48;;
10667;SDS011;5382;42.136;24.796;2023-04-09T05:42:40;26.02;;;12.50;;
10667;SDS011;5382;42.136;24.796;2023-04-09T05:45:07;28.65;;;12.50;;
10667;SDS011;5382;42.136;24.796;2023-04-09T05:47:35;25.02;;;12.50;;
10667;SDS011;5382;42.136;24.796;2023-04-09T05:50:01;23.52;;;11.35;;
10667;SDS011;5382;42.136;24.796;2023-04-09T05:52:29;25.30;;;12.00;;
10667;SDS011;5382;42.136;24.796;2023-04-09T05:54:56;21.38;;;11.90;;
10667;SDS011;5382;42.136;24.796;2023-04-09T05:57:23;23.67;;;12.48;;
10667;SDS011;5382;42.136;24.796;2023-04-09T05:59:51;24.98;;;12.35;;
10667;SDS011;5382;42.136;24.796;2023-04-09T06:02:17;24.90;;;11.40;;
10667;SDS011;5382;42.136;24.796;2023-04-09T06:04:44;17.73;;;10.25;;
10667;SDS011;5382;42.136;24.796;2023-04-09T06:07:11;19.10;;;10.65;;
10667;SDS011;5382;42.136;24.796;2023-04-09T06:09:38;20.63;;;11.38;;
10667;SDS011;5382;42.136;24.796;2023-04-09T06:12:05;18.00;;;10.38;;
10667;SDS011;5382;42.136;24.796;2023-04-09T06:14:31;26.27;;;10.82;;
10667;SDS011;5382;42.136;24.796;2023-04-09T06:16:59;16.60;;;9.45;;
10667;SDS011;5382;42.136;24.796;2023-04-09T06:19:27;19.10;;;10.18;;
10667;SDS011;5382;42.136;24.796;2023-04-09T06:21:54;20.08;;;10.38;;
10667;SDS011;5382;42.136;24.796;2023-04-09T06:24:21;14.63;;;8.27;;
10667;SDS011;5382;42.136;24.796;2023-04-09T06:26:48;15.13;;;9.88;;
10667;SDS011;5382;42.136;24.796;2023-04-09T06:29:15;16.30;;;8.80;;
10667;SDS011;5382;42.136;24.796;2023-04-09T06:31:42;13.65;;;8.25;;
10667;SDS011;5382;42.136;24.796;2023-04-09T06:34:10;13.57;;;8.70;;
10667;SDS011;5382;42.136;24.796;2023-04-09T06:36:37;15.02;;;8.48;;
10667;SDS011;5382;42.136;24.796;2023-04-09T06:39:04;14.80;;;8.15;;
10667;SDS011;5382;42.136;24.796;2023-04-09T06:41:31;12.65;;;7.95;;
10667;SDS011;5382;42.136;24.796;2023-04-09T06:43:58;14.05;;;9.77;;
10667;SDS011;5382;42.136;24.796;2023-04-09T06:46:25;13.90;;;8.38;;
10667;SDS011;5382;42.136;24.796;2023-04-09T06:48:53;10.98;;;7.30;;
10667;SDS011;5382;42.136;24.796;2023-04-09T06:51:21;10.82;;;8.10;;
10667;SDS011;5382;42.136;24.796;2023-04-09T06:53:48;9.45;;;7.13;;
10667;SDS011;5382;42.136;24.796;2023-04-09T06:56:15;12.68;;;8.02;;
10667;SDS011;5382;42.136;24.796;2023-04-09T06:58:41;8.93;;;7.50;;
10667;SDS011;5382;42.136;24.796;2023-04-09T07:01:08;8.23;;;7.38;;
10667;SDS011;5382;42.136;24.796;2023-04-09T07:03:35;8.38;;;7.57;;
10667;SDS011;5382;42.136;24.796;2023-04-09T07:06:02;10.90;;;5.80;;
10667;SDS011;5382;42.136;24.796;2023-04-09T07:10:59;9.18;;;5.88;;
10667;SDS011;5382;42.136;24.796;2023-04-09T07:13:25;8.70;;;7.80;;
10667;SDS011;5382;42.136;24.796;2023-04-09T07:15:52;12.07;;;7.93;;
10667;SDS011;5382;42.136;24.796;2023-04-09T07:18:19;11.68;;;8.45;;
10667;SDS011;5382;42.136;24.796;2023-04-09T07:20:46;9.35;;;7.80;;
10667;SDS011;5382;42.136;24.796;2023-04-09T07:23:12;10.30;;;6.68;;
10667;SDS011;5382;42.136;24.796;2023-04-09T07:25:41;9.45;;;7.38;;
10667;SDS011;5382;42.136;24.796;2023-04-09T07:28:07;8.82;;;7.05;;
10667;SDS011;5382;42.136;24.796;2023-04-09T07:30:35;7.10;;;5.55;;
10667;SDS011;5382;42.136;24.796;2023-04-09T07:33:02;6.63;;;5.90;;
10667;SDS011;5382;42.136;24.796;2023-04-09T07:35:29;6.90;;;6.15;;
10667;SDS011;5382;42.136;24.796;2023-04-09T07:37:56;6.95;;;5.82;;
10667;SDS011;5382;42.136;24.796;2023-04-09T07:40:24;7.15;;;6.30;;
10667;SDS011;5382;42.136;24.796;2023-04-09T07:42:52;8.77;;;4.45;;
10667;SDS011;5382;42.136;24.796;2023-04-09T07:45:19;7.65;;;6.32;;
10667;SDS011;5382;42.136;24.796;2023-04-09T07:47:46;7.90;;;6.40;;
10667;SDS011;5382;42.136;24.796;2023-04-09T07:50:13;6.30;;;5.68;;
10667;SDS011;5382;42.136;24.796;2023-04-09T07:52:40;7.32;;;6.18;;
10667;SDS011;5382;42.136;24.796;2023-04-09T07:55:07;9.23;;;6.15;;
10667;SDS011;5382;42.136;24.796;2023-04-09T07:57:34;5.45;;;4.60;;
10667;SDS011;5382;42.136;24.796;2023-04-09T08:00:03;12.00;;;6.57;;
10667;SDS011;5382;42.136;24.796;2023-04-09T08:02:31;7.30;;;6.60;;
10667;SDS011;5382;42.136;24.796;2023-04-09T08:04:58;6.30;;;5.65;;
10667;SDS011;5382;42.136;24.796;2023-04-09T08:07:25;7.60;;;5.50;;
10667;SDS011;5382;42.136;24.796;2023-04-09T08:09:51;6.40;;;5.80;;
10667;SDS011;5382;42.136;24.796;2023-04-09T08:12:18;5.50;;;4.18;;
10667;SDS011;5382;42.136;24.796;2023-04-09T08:14:45;5.32;;;4.85;;
10667;SDS011;5382;42.136;24.796;2023-04-09T08:17:14;5.60;;;5.10;;
10667;SDS011;5382;42.136;24.796;2023-04-09T08:19:40;6.15;;;5.30;;
10667;SDS011;5382;42.136;24.796;2023-04-09T08:22:07;5.40;;;4.75;;
10667;SDS011;5382;42.136;24.796;2023-04-09T08:24:34;5.30;;;4.80;;
10667;SDS011;5382;42.136;24.796;2023-04-09T08:27:02;5.90;;;5.32;;
10667;SDS011;5382;42.136;24.796;2023-04-09T08:29:29;6.15;;;5.55;;
10667;SDS011;5382;42.136;24.796;2023-04-09T08:31:58;6.97;;;6.30;;
10667;SDS011;5382;42.136;24.796;2023-04-09T08:34:26;6.57;;;4.88;;
10667;SDS011;5382;42.136;24.796;2023-04-09T08:36:53;6.95;;;6.25;;
10667;SDS011;5382;42.136;24.796;2023-04-09T08:39:21;7.20;;;6.38;;
10667;SDS011;5382;42.136;24.796;2023-04-09T08:41:47;6.75;;;6.15;;
10667;SDS011;5382;42.136;24.796;2023-04-09T08:44:17;6.93;;;6.22;;
10667;SDS011;5382;42.136;24.796;2023-04-09T08:46:44;6.53;;;5.93;;
10667;SDS011;5382;42.136;24.796;2023-04-09T08:49:11;6.63;;;6.05;;
10667;SDS011;5382;42.136;24.796;2023-04-09T08:51:44;6.38;;;5.45;;
10667;SDS011;5382;42.136;24.796;2023-04-09T08:54:13;6.97;;;6.28;;
10667;SDS011;5382;42.136;24.796;2023-04-09T08:56:40;6.45;;;5.85;;
10667;SDS011;5382;42.136;24.796;2023-04-09T08:59:07;6.07;;;5.47;;
10667;SDS011;5382;42.136;24.796;2023-04-09T09:01:34;6.95;;;6.25;;
10667;SDS011;5382;42.136;24.796;2023-04-09T09:04:01;6.03;;;5.43;;
10667;SDS011;5382;42.136;24.796;2023-04-09T09:06:30;6.40;;;5.65;;
10667;SDS011;5382;42.136;24.796;2023-04-09T09:09:03;6.63;;;6.03;;
10667;SDS011;5382;42.136;24.796;2023-04-09T09:11:31;7.38;;;5.53;;
10667;SDS011;5382;42.136;24.796;2023-04-09T09:13:59;6.18;;;5.68;;
10667;SDS011;5382;42.136;24.796;2023-04-09T09:16:27;6.47;;;5.45;;
10667;SDS011;5382;42.136;24.796;2023-04-09T09:18:55;5.85;;;5.28;;
10667;SDS011;5382;42.136;24.796;2023-04-09T09:21:22;6.60;;;5.82;;
10667;SDS011;5382;42.136;24.796;2023-04-09T09:23:51;6.80;;;6.00;;
10667;SDS011;5382;42.136;24.796;2023-04-09T09:26:20;6.38;;;5.78;;
10667;SDS011;5382;42.136;24.796;2023-04-09T09:28:48;6.28;;;5.68;;
10667;SDS011;5382;42.136;24.796;2023-04-09T09:31:16;6.50;;;5.80;;
10667;SDS011;5382;42.136;24.796;2023-04-09T09:33:44;7.53;;;5.80;;
10667;SDS011;5382;42.136;24.796;2023-04-09T09:36:12;6.95;;;5.93;;
10667;SDS011;5382;42.136;24.796;2023-04-09T09:38:52;7.00;;;6.25;;
10667;SDS011;5382;42.136;24.796;2023-04-09T09:41:23;8.45;;;6.80;;
10667;SDS011;5382;42.136;24.796;2023-04-09T09:43:50;7.93;;;6.70;;
10667;SDS011;5382;42.136;24.796;2023-04-09T09:46:17;5.57;;;5.07;;
10667;SDS011;5382;42.136;24.796;2023-04-09T09:48:46;9.48;;;6.30;;
10667;SDS011;5382;42.136;24.796;2023-04-09T09:51:13;6.47;;;5.72;;
10667;SDS011;5382;42.136;24.796;2023-04-09T09:53:42;5.75;;;5.25;;
10667;SDS011;5382;42.136;24.796;2023-04-09T09:56:14;6.03;;;5.43;;
10667;SDS011;5382;42.136;24.796;2023-04-09T09:58:47;7.32;;;5.72;;
10667;SDS011;5382;42.136;24.796;2023-04-09T10:01:18;10.30;;;5.63;;
10667;SDS011;5382;42.136;24.796;2023-04-09T10:03:47;5.32;;;4.65;;
10667;SDS011;5382;42.136;24.796;2023-04-09T10:06:17;4.63;;;4.22;;
10667;SDS011;5382;42.136;24.796;2023-04-09T10:08:44;5.53;;;4.97;;
10667;SDS011;5382;42.136;24.796;2023-04-09T10:11:15;8.15;;;6.55;;
10667;SDS011;5382;42.136;24.796;2023-04-09T10:13:43;6.50;;;5.90;;
10667;SDS011;5382;42.136;24.796;2023-04-09T10:16:15;6.78;;;6.18;;
10667;SDS011;5382;42.136;24.796;2023-04-09T10:18:42;11.25;;;6.13;;
10667;SDS011;5382;42.136;24.796;2023-04-09T10:21:11;6.15;;;5.55;;
10667;SDS011;5382;42.136;24.796;2023-04-09T10:23:47;6.45;;;5.85;;
10667;SDS011;5382;42.136;24.796;2023-04-09T10:26:16;6.50;;;5.90;;
10667;SDS011;5382;42.136;24.796;2023-04-09T10:28:43;5.65;;;5.05;;
10667;SDS011;5382;42.136;24.796;2023-04-09T10:31:12;6.82;;;5.63;;
10667;SDS011;5382;42.136;24.796;2023-04-09T10:33:40;5.55;;;5.05;;
10667;SDS011;5382;42.136;24.796;2023-04-09T10:36:10;5.75;;;4.15;;
10667;SDS011;5382;42.136;24.796;2023-04-09T10:38:38;4.55;;;4.15;;
10667;SDS011;5382;42.136;24.796;2023-04-09T10:41:07;4.60;;;3.78;;
10667;SDS011;5382;42.136;24.796;2023-04-09T10:43:38;4.15;;;3.75;;
10667;SDS011;5382;42.136;24.796;2023-04-09T10:46:06;3.13;;;2.85;;
10667;SDS011;5382;42.136;24.796;2023-04-09T10:49:09;3.28;;;2.25;;
10667;SDS011;5382;42.136;24.796;2023-04-09T10:51:37;5.35;;;2.63;;
10667;SDS011;5382;42.136;24.796;2023-04-09T10:54:05;2.72;;;2.53;;
10667;SDS011;5382;42.136;24.796;2023-04-09T10:57:11;2.67;;;2.45;;
10667;SDS011;5382;42.136;24.796;2023-04-09T10:59:42;2.90;;;2.35;;
10667;SDS011;5382;42.136;24.796;2023-04-09T11:02:26;2.55;;;2.35;;
10667;SDS011;5382;42.136;24.796;2023-04-09T11:05:21;2.47;;;2.28;;
10667;SDS011;5382;42.136;24.796;2023-04-09T11:07:57;2.60;;;2.40;;
10667;SDS011;5382;42.136;24.796;2023-04-09T11:10:31;2.28;;;2.10;;
10667;SDS011;5382;42.136;24.796;2023-04-09T11:12:58;6.28;;;5.45;;
10667;SDS011;5382;42.136;24.796;2023-04-09T11:15:25;2.90;;;2.70;;
10667;SDS011;5382;42.136;24.796;2023-04-09T11:17:52;3.92;;;2.60;;
10667;SDS011;5382;42.136;24.796;2023-04-09T11:20:22;2.67;;;2.47;;
10667;SDS011;5382;42.136;24.796;2023-04-09T11:22:50;3.42;;;2.90;;
10667;SDS011;5382;42.136;24.796;2023-04-09T11:25:18;4.18;;;2.80;;
10667;SDS011;5382;42.136;24.796;2023-04-09T11:27:46;3.70;;;2.90;;
10667;SDS011;5382;42.136;24.796;2023-04-09T11:30:13;3.33;;;3.03;;
10667;SDS011;5382;42.136;24.796;2023-04-09T11:32:40;3.85;;;3.45;;
10667;SDS011;5382;42.136;24.796;2023-04-09T11:35:11;3.47;;;3.00;;
10667;SDS011;5382;42.136;24.796;2023-04-09T11:37:41;3.58;;;2.92;;
10667;SDS011;5382;42.136;24.796;2023-04-09T11:40:13;9.30;;;3.53;;
10667;SDS011;5382;42.136;24.796;2023-04-09T11:42:41;3.00;;;2.80;;
10667;SDS011;5382;42.136;24.796;2023-04-09T11:45:09;3.45;;;3.15;;
10667;SDS011;5382;42.136;24.796;2023-04-09T11:47:37;3.25;;;2.83;;
10667;SDS011;5382;42.136;24.796;2023-04-09T11:50:06;3.92;;;2.67;;
10667;SDS011;5382;42.136;24.796;2023-04-09T11:52:34;3.15;;;2.42;;
10667;SDS011;5382;42.136;24.796;2023-04-09T11:55:03;3.17;;;2.85;;
10667;SDS011;5382;42.136;24.796;2023-04-09T11:57:38;3.20;;;2.90;;
10667;SDS011;5382;42.136;24.796;2023-04-09T12:00:07;5.25;;;2.90;;
10667;SDS011;5382;42.136;24.796;2023-04-09T12:02:37;2.70;;;2.50;;
10667;SDS011;5382;42.136;24.796;2023-04-09T12:05:10;17.25;;;3.10;;
10667;SDS011;5382;42.136;24.796;2023-04-09T12:07:45;2.83;;;2.63;;
10667;SDS011;5382;42.136;24.796;2023-04-09T12:10:14;2.60;;;2.40;;
10667;SDS011;5382;42.136;24.796;2023-04-09T12:12:41;3.38;;;2.83;;
10667;SDS011;5382;42.136;24.796;2023-04-09T12:15:10;2.80;;;2.60;;
10667;SDS011;5382;42.136;24.796;2023-04-09T12:17:47;3.38;;;3.08;;
10667;SDS011;5382;42.136;24.796;2023-04-09T12:20:25;3.10;;;2.90;;
10667;SDS011;5382;42.136;24.796;2023-04-09T12:22:53;3.45;;;3.15;;
10667;SDS011;5382;42.136;24.796;2023-04-09T12:25:22;4.00;;;3.25;;
10667;SDS011;5382;42.136;24.796;2023-04-09T12:27:49;3.75;;;3.45;;
10667;SDS011;5382;42.136;24.796;2023-04-09T12:30:15;3.97;;;3.60;;
10667;SDS011;5382;42.136;24.796;2023-04-09T12:32:42;3.45;;;3.10;;
10667;SDS011;5382;42.136;24.796;2023-04-09T12:35:10;3.40;;;3.10;;
10667;SDS011;5382;42.136;24.796;2023-04-09T12:37:37;3.53;;;3.22;;
10667;SDS011;5382;42.136;24.796;2023-04-09T12:40:04;3.03;;;2.78;;
10667;SDS011;5382;42.136;24.796;2023-04-09T12:42:33;3.55;;;2.95;;
10667;SDS011;5382;42.136;24.796;2023-04-09T12:44:59;3.70;;;3.40;;
10667;SDS011;5382;42.136;24.796;2023-04-09T12:47:26;3.33;;;3.03;;
10667;SDS011;5382;42.136;24.796;2023-04-09T12:49:53;3.35;;;3.05;;
10667;SDS011;5382;42.136;24.796;2023-04-09T12:52:20;3.85;;;3.47;;
10667;SDS011;5382;42.136;24.796;2023-04-09T12:54:48;8.07;;;3.50;;
10667;SDS011;5382;42.136;24.796;2023-04-09T12:57:15;3.60;;;3.30;;
10667;SDS011;5382;42.136;24.796;2023-04-09T12:59:44;3.90;;;3.60;;
10667;SDS011;5382;42.136;24.796;2023-04-09T13:02:10;3.35;;;3.05;;
10667;SDS011;5382;42.136;24.796;2023-04-09T13:04:37;15.35;;;3.90;;
10667;SDS011;5382;42.136;24.796;2023-04-09T13:07:04;3.40;;;3.10;;
10667;SDS011;5382;42.136;24.796;2023-04-09T13:09:31;7.43;;;3.15;;
10667;SDS011;5382;42.136;24.796;2023-04-09T13:11:59;7.25;;;3.10;;
10667;SDS011;5382;42.136;24.796;2023-04-09T13:14:26;3.05;;;2.85;;
10667;SDS011;5382;42.136;24.796;2023-04-09T13:16:54;4.55;;;3.20;;
10667;SDS011;5382;42.136;24.796;2023-04-09T13:19:21;2.97;;;2.78;;
10667;SDS011;5382;42.136;24.796;2023-04-09T13:21:48;3.85;;;2.83;;
10667;SDS011;5382;42.136;24.796;2023-04-09T13:24:15;4.65;;;3.05;;
10667;SDS011;5382;42.136;24.796;2023-04-09T13:26:43;3.42;;;2.90;;
10667;SDS011;5382;42.136;24.796;2023-04-09T13:29:09;3.17;;;2.88;;
10667;SDS011;5382;42.136;24.796;2023-04-09T13:31:36;3.75;;;2.88;;
10667;SDS011;5382;42.136;24.796;2023-04-09T13:34:04;3.10;;;2.90;;
10667;SDS011;5382;42.136;24.796;2023-04-09T13:36:31;3.92;;;2.53;;
10667;SDS011;5382;42.136;24.796;2023-04-09T13:38:59;4.55;;;3.40;;
10667;SDS011;5382;42.136;24.796;2023-04-09T13:41:28;3.45;;;3.15;;
10667;SDS011;5382;42.136;24.796;2023-04-09T13:43:56;3.33;;;3.00;;
10667;SDS011;5382;42.136;24.796;2023-04-09T13:46:23;4.03;;;3.22;;
10667;SDS011;5382;42.136;24.796;2023-04-09T13:48:50;5.65;;;5.15;;
10667;SDS011;5382;42.136;24.796;2023-04-09T13:51:18;4.32;;;3.28;;
10667;SDS011;5382;42.136;24.796;2023-04-09T13:53:45;3.78;;;3.13;;
10667;SDS011;5382;42.136;24.796;2023-04-09T13:56:12;3.92;;;3.63;;
10667;SDS011;5382;42.136;24.796;2023-04-09T13:58:39;4.45;;;4.05;;
10667;SDS011;5382;42.136;24.796;2023-04-09T14:01:07;3.10;;;2.90;;
10667;SDS011;5382;42.136;24.796;2023-04-09T14:03:34;2.83;;;2.63;;
10667;SDS011;5382;42.136;24.796;2023-04-09T14:06:02;3.60;;;3.17;;
10667;SDS011;5382;42.136;24.796;2023-04-09T14:08:31;4.47;;;2.75;;
10667;SDS011;5382;42.136;24.796;2023-04-09T14:10:58;3.42;;;3.13;;
10667;SDS011;5382;42.136;24.796;2023-04-09T14:13:25;5.53;;;3.50;;
10667;SDS011;5382;42.136;24.796;2023-04-09T14:15:51;10.07;;;3.83;;
10667;SDS011;5382;42.136;24.796;2023-04-09T14:18:19;3.25;;;3.05;;
10667;SDS011;5382;42.136;24.796;2023-04-09T14:20:45;4.10;;;3.45;;
10667;SDS011;5382;42.136;24.796;2023-04-09T14:23:12;4.55;;;3.40;;
10667;SDS011;5382;42.136;24.796;2023-04-09T14:25:40;2.88;;;2.67;;
10667;SDS011;5382;42.136;24.796;2023-04-09T14:28:07;3.80;;;3.25;;
10667;SDS011;5382;42.136;24.796;2023-04-09T14:30:34;3.35;;;3.13;;
10667;SDS011;5382;42.136;24.796;2023-04-09T14:33:01;3.78;;;3.40;;
10667;SDS011;5382;42.136;24.796;2023-04-09T14:35:28;3.38;;;3.08;;
10667;SDS011;5382;42.136;24.796;2023-04-09T14:37:54;4.05;;;2.88;;
10667;SDS011;5382;42.136;24.796;2023-04-09T14:40:21;3.10;;;2.90;;
10667;SDS011;5382;42.136;24.796;2023-04-09T14:42:49;4.22;;;3.00;;
10667;SDS011;5382;42.136;24.796;2023-04-09T14:45:16;3.90;;;3.60;;
10667;SDS011;5382;42.136;24.796;2023-04-09T14:47:43;3.90;;;3.05;;
10667;SDS011;5382;42.136;24.796;2023-04-09T14:50:09;3.42;;;3.10;;